sensor_id;sensor_type;location;lat;lon;timestamp;temperature;humidity
51878;SHT31;37911;51.526;11.536;2024-03-08T00:02:30;-0.15;82.69
51878;SHT31;37911;51.526;11.536;2024-03-08T00:05:36;-0.12;82.45
51878;SHT31;37911;51.526;11.536;2024-03-08T00:08:40;-0.23;82.67
51878;SHT31;37911;51.526;11.536;2024-03-08T00:11:43;-0.29;82.90
51878;SHT31;37911;51.526;11.536;2024-03-08T00:14:47;-0.40;83.23
51878;SHT31;37911;51.526;11.536;2024-03-08T00:17:50;-0.36;83.51
51878;SHT31;37911;51.526;11.536;2024-03-08T00:20:56;-0.52;83.77
51878;SHT31;37911;51.526;11.536;2024-03-08T00:24:00;-0.56;83.66
51878;SHT31;37911;51.526;11.536;2024-03-08T00:27:04;-0.54;83.33
51878;SHT31;37911;51.526;11.536;2024-03-08T00:30:10;-0.64;83.44
51878;SHT31;37911;51.526;11.536;2024-03-08T00:33:13;-0.64;83.71
51878;SHT31;37911;51.526;11.536;2024-03-08T00:36:19;-0.60;84.00
51878;SHT31;37911;51.526;11.536;2024-03-08T00:39:23;-0.67;84.09
51878;SHT31;37911;51.526;11.536;2024-03-08T00:42:26;-0.63;84.05
51878;SHT31;37911;51.526;11.536;2024-03-08T00:45:29;-0.60;83.63
51878;SHT31;37911;51.526;11.536;2024-03-08T00:48:33;-0.63;83.82
51878;SHT31;37911;51.526;11.536;2024-03-08T00:51:40;-0.60;84.34
51878;SHT31;37911;51.526;11.536;2024-03-08T00:54:44;-0.64;83.95
51878;SHT31;37911;51.526;11.536;2024-03-08T00:57:47;-0.70;83.66
51878;SHT31;37911;51.526;11.536;2024-03-08T01:00:51;-0.77;83.70
51878;SHT31;37911;51.526;11.536;2024-03-08T01:03:54;-0.68;83.39
51878;SHT31;37911;51.526;11.536;2024-03-08T01:07:01;-0.74;83.50
51878;SHT31;37911;51.526;11.536;2024-03-08T01:10:05;-0.85;83.38
51878;SHT31;37911;51.526;11.536;2024-03-08T01:13:10;-0.91;83.67
51878;SHT31;37911;51.526;11.536;2024-03-08T01:16:13;-0.97;84.10
51878;SHT31;37911;51.526;11.536;2024-03-08T01:19:17;-0.91;83.88
51878;SHT31;37911;51.526;11.536;2024-03-08T01:22:23;-0.88;83.68
51878;SHT31;37911;51.526;11.536;2024-03-08T01:25:26;-0.94;83.66
51878;SHT31;37911;51.526;11.536;2024-03-08T01:28:30;-0.94;83.75
51878;SHT31;37911;51.526;11.536;2024-03-08T01:31:34;-0.95;83.68
51878;SHT31;37911;51.526;11.536;2024-03-08T01:34:38;-0.97;83.84
51878;SHT31;37911;51.526;11.536;2024-03-08T01:37:44;-1.00;83.93
51878;SHT31;37911;51.526;11.536;2024-03-08T01:40:48;-0.92;83.75
51878;SHT31;37911;51.526;11.536;2024-03-08T01:43:51;-0.83;83.16
51878;SHT31;37911;51.526;11.536;2024-03-08T01:46:55;-0.90;82.96
51878;SHT31;37911;51.526;11.536;2024-03-08T01:49:58;-0.87;82.75
51878;SHT31;37911;51.526;11.536;2024-03-08T01:53:07;-1.00;82.82
51878;SHT31;37911;51.526;11.536;2024-03-08T01:56:12;-1.07;83.12
51878;SHT31;37911;51.526;11.536;2024-03-08T01:59:15;-1.11;83.20
51878;SHT31;37911;51.526;11.536;2024-03-08T02:02:20;-1.07;83.37
51878;SHT31;37911;51.526;11.536;2024-03-08T02:05:25;-1.22;83.59
51878;SHT31;37911;51.526;11.536;2024-03-08T02:08:31;-1.15;83.54
51878;SHT31;37911;51.526;11.536;2024-03-08T02:11:35;-1.24;83.77
51878;SHT31;37911;51.526;11.536;2024-03-08T02:14:38;-1.25;83.88
51878;SHT31;37911;51.526;11.536;2024-03-08T02:17:42;-1.22;83.54
51878;SHT31;37911;51.526;11.536;2024-03-08T02:20:48;-1.28;83.70
51878;SHT31;37911;51.526;11.536;2024-03-08T02:23:51;-1.35;83.84
51878;SHT31;37911;51.526;11.536;2024-03-08T02:26:55;-1.36;84.05
51878;SHT31;37911;51.526;11.536;2024-03-08T02:29:58;-1.31;83.84
51878;SHT31;37911;51.526;11.536;2024-03-08T02:33:02;-1.35;83.59
51878;SHT31;37911;51.526;11.536;2024-03-08T02:36:08;-1.32;83.59
51878;SHT31;37911;51.526;11.536;2024-03-08T02:39:12;-1.32;83.50
51878;SHT31;37911;51.526;11.536;2024-03-08T02:42:16;-1.28;83.31
51878;SHT31;37911;51.526;11.536;2024-03-08T02:45:19;-1.31;83.05
51878;SHT31;37911;51.526;11.536;2024-03-08T02:48:22;-1.34;82.82
51878;SHT31;37911;51.526;11.536;2024-03-08T02:51:28;-1.32;82.98
51878;SHT31;37911;51.526;11.536;2024-03-08T02:54:32;-1.46;82.98
51878;SHT31;37911;51.526;11.536;2024-03-08T02:57:37;-1.42;82.94
51878;SHT31;37911;51.526;11.536;2024-03-08T03:00:40;-1.53;83.17
51878;SHT31;37911;51.526;11.536;2024-03-08T03:03:43;-1.63;83.40
51878;SHT31;37911;51.526;11.536;2024-03-08T03:06:50;-1.56;83.39
51878;SHT31;37911;51.526;11.536;2024-03-08T03:09:54;-1.55;83.18
51878;SHT31;37911;51.526;11.536;2024-03-08T03:12:57;-1.53;83.26
51878;SHT31;37911;51.526;11.536;2024-03-08T03:16:00;-1.67;83.34
51878;SHT31;37911;51.526;11.536;2024-03-08T03:19:03;-1.62;83.34
51878;SHT31;37911;51.526;11.536;2024-03-08T03:22:10;-1.63;83.52
51878;SHT31;37911;51.526;11.536;2024-03-08T03:25:14;-1.70;83.90
51878;SHT31;37911;51.526;11.536;2024-03-08T03:28:25;-1.69;83.87
51878;SHT31;37911;51.526;11.536;2024-03-08T03:31:29;-1.75;83.99
51878;SHT31;37911;51.526;11.536;2024-03-08T03:34:32;-1.69;83.65
51878;SHT31;37911;51.526;11.536;2024-03-08T03:37:39;-1.69;83.36
51878;SHT31;37911;51.526;11.536;2024-03-08T03:40:43;-1.80;83.44
51878;SHT31;37911;51.526;11.536;2024-03-08T03:43:49;-1.80;83.56
51878;SHT31;37911;51.526;11.536;2024-03-08T03:46:52;-1.85;83.61
51878;SHT31;37911;51.526;11.536;2024-03-08T03:49:56;-1.76;83.82
51878;SHT31;37911;51.526;11.536;2024-03-08T03:53:05;-1.82;83.94
51878;SHT31;37911;51.526;11.536;2024-03-08T03:56:09;-1.75;83.62
51878;SHT31;37911;51.526;11.536;2024-03-08T03:59:12;-1.79;83.40
51878;SHT31;37911;51.526;11.536;2024-03-08T04:02:15;-1.72;83.12
51878;SHT31;37911;51.526;11.536;2024-03-08T04:05:20;-1.73;82.77
51878;SHT31;37911;51.526;11.536;2024-03-08T04:08:26;-1.82;82.90
51878;SHT31;37911;51.526;11.536;2024-03-08T04:11:30;-1.93;83.34
51878;SHT31;37911;51.526;11.536;2024-03-08T04:14:33;-1.86;83.16
51878;SHT31;37911;51.526;11.536;2024-03-08T04:17:36;-1.82;82.80
51878;SHT31;37911;51.526;11.536;2024-03-08T04:20:40;-1.90;83.21
51878;SHT31;37911;51.526;11.536;2024-03-08T04:23:46;-1.93;83.21
51878;SHT31;37911;51.526;11.536;2024-03-08T04:26:49;-1.87;83.23
51878;SHT31;37911;51.526;11.536;2024-03-08T04:29:53;-1.89;83.08
51878;SHT31;37911;51.526;11.536;2024-03-08T04:32:57;-1.85;82.85
51878;SHT31;37911;51.526;11.536;2024-03-08T04:36:01;-1.76;82.79
51878;SHT31;37911;51.526;11.536;2024-03-08T04:39:07;-1.76;82.35
51878;SHT31;37911;51.526;11.536;2024-03-08T04:42:13;-1.80;82.46
51878;SHT31;37911;51.526;11.536;2024-03-08T04:45:18;-1.87;82.96
51878;SHT31;37911;51.526;11.536;2024-03-08T04:48:22;-1.85;83.18
51878;SHT31;37911;51.526;11.536;2024-03-08T04:51:27;-1.83;82.85
51878;SHT31;37911;51.526;11.536;2024-03-08T04:54:33;-1.87;82.78
51878;SHT31;37911;51.526;11.536;2024-03-08T04:57:36;-2.07;83.06
51878;SHT31;37911;51.526;11.536;2024-03-08T05:00:39;-2.14;83.37
51878;SHT31;37911;51.526;11.536;2024-03-08T05:03:43;-2.11;83.67
51878;SHT31;37911;51.526;11.536;2024-03-08T05:06:48;-2.10;83.57
51878;SHT31;37911;51.526;11.536;2024-03-08T05:09:54;-2.06;83.26
51878;SHT31;37911;51.526;11.536;2024-03-08T05:12:57;-2.13;83.38
51878;SHT31;37911;51.526;11.536;2024-03-08T05:16:00;-2.07;83.25
51878;SHT31;37911;51.526;11.536;2024-03-08T05:19:04;-2.08;83.33
51878;SHT31;37911;51.526;11.536;2024-03-08T05:22:07;-2.10;83.14
51878;SHT31;37911;51.526;11.536;2024-03-08T05:25:13;-2.13;83.13
51878;SHT31;37911;51.526;11.536;2024-03-08T05:28:16;-2.15;83.46
51878;SHT31;37911;51.526;11.536;2024-03-08T05:31:20;-2.11;83.11
51878;SHT31;37911;51.526;11.536;2024-03-08T05:34:25;-2.11;83.07
51878;SHT31;37911;51.526;11.536;2024-03-08T05:37:29;-2.11;83.16
51878;SHT31;37911;51.526;11.536;2024-03-08T05:40:35;-2.14;83.00
51878;SHT31;37911;51.526;11.536;2024-03-08T05:43:40;-2.08;82.84
51878;SHT31;37911;51.526;11.536;2024-03-08T05:46:44;-2.13;83.12
51878;SHT31;37911;51.526;11.536;2024-03-08T05:49:47;-2.20;83.27
51878;SHT31;37911;51.526;11.536;2024-03-08T05:52:50;-2.13;83.26
51878;SHT31;37911;51.526;11.536;2024-03-08T05:55:57;-2.04;83.05
51878;SHT31;37911;51.526;11.536;2024-03-08T05:59:02;-1.98;82.80
51878;SHT31;37911;51.526;11.536;2024-03-08T06:02:06;-1.89;82.37
51878;SHT31;37911;51.526;11.536;2024-03-08T06:05:09;-1.69;81.63
51878;SHT31;37911;51.526;11.536;2024-03-08T06:08:13;-1.48;81.04
51878;SHT31;37911;51.526;11.536;2024-03-08T06:11:20;-1.22;80.11
51878;SHT31;37911;51.526;11.536;2024-03-08T06:14:23;-0.83;79.00
51878;SHT31;37911;51.526;11.536;2024-03-08T06:17:26;-0.56;77.99
51878;SHT31;37911;51.526;11.536;2024-03-08T06:20:30;-0.02;76.33
51878;SHT31;37911;51.526;11.536;2024-03-08T06:23:33;0.19;74.82
51878;SHT31;37911;51.526;11.536;2024-03-08T06:26:41;0.55;74.64
51878;SHT31;37911;51.526;11.536;2024-03-08T06:29:44;0.62;73.69
51878;SHT31;37911;51.526;11.536;2024-03-08T06:32:49;0.22;74.65
51878;SHT31;37911;51.526;11.536;2024-03-08T06:35:52;0.11;75.72
51878;SHT31;37911;51.526;11.536;2024-03-08T06:38:57;0.09;75.70
51878;SHT31;37911;51.526;11.536;2024-03-08T06:42:03;-0.01;76.19
51878;SHT31;37911;51.526;11.536;2024-03-08T06:45:10;-0.16;76.83
51878;SHT31;37911;51.526;11.536;2024-03-08T06:48:15;-0.29;77.58
51878;SHT31;37911;51.526;11.536;2024-03-08T06:51:19;-0.32;78.48
51878;SHT31;37911;51.526;11.536;2024-03-08T06:54:23;-0.29;78.84
51878;SHT31;37911;51.526;11.536;2024-03-08T06:57:29;-0.33;79.39
51878;SHT31;37911;51.526;11.536;2024-03-08T07:00:32;-0.37;80.13
51878;SHT31;37911;51.526;11.536;2024-03-08T07:03:36;-0.33;80.14
51878;SHT31;37911;51.526;11.536;2024-03-08T07:06:44;-0.20;80.00
51878;SHT31;37911;51.526;11.536;2024-03-08T07:09:50;-0.16;80.43
51878;SHT31;37911;51.526;11.536;2024-03-08T07:12:56;0.04;80.53
51878;SHT31;37911;51.526;11.536;2024-03-08T07:16:02;0.11;80.78
51878;SHT31;37911;51.526;11.536;2024-03-08T07:19:06;0.11;81.13
51878;SHT31;37911;51.526;11.536;2024-03-08T07:22:09;0.22;81.35
51878;SHT31;37911;51.526;11.536;2024-03-08T07:25:13;0.42;81.15
51878;SHT31;37911;51.526;11.536;2024-03-08T07:28:32;0.60;80.98
51878;SHT31;37911;51.526;11.536;2024-03-08T07:31:35;0.80;80.50
51878;SHT31;37911;51.526;11.536;2024-03-08T07:34:51;0.94;80.30
51878;SHT31;37911;51.526;11.536;2024-03-08T07:37:55;1.19;80.03
51878;SHT31;37911;51.526;11.536;2024-03-08T07:41:00;1.28;80.02
51878;SHT31;37911;51.526;11.536;2024-03-08T07:44:06;1.38;79.97
51878;SHT31;37911;51.526;11.536;2024-03-08T07:47:09;1.48;79.53
51878;SHT31;37911;51.526;11.536;2024-03-08T07:50:13;1.71;79.61
51878;SHT31;37911;51.526;11.536;2024-03-08T07:53:17;1.86;78.95
51878;SHT31;37911;51.526;11.536;2024-03-08T07:56:20;1.96;78.37
51878;SHT31;37911;51.526;11.536;2024-03-08T07:59:32;2.32;77.96
51878;SHT31;37911;51.526;11.536;2024-03-08T08:02:35;2.54;77.37
51878;SHT31;37911;51.526;11.536;2024-03-08T08:05:39;2.68;76.96
51878;SHT31;37911;51.526;11.536;2024-03-08T08:08:42;2.98;76.18
51878;SHT31;37911;51.526;11.536;2024-03-08T08:11:45;3.02;75.74
51878;SHT31;37911;51.526;11.536;2024-03-08T08:14:51;3.35;75.03
51878;SHT31;37911;51.526;11.536;2024-03-08T08:17:55;3.40;74.65
51878;SHT31;37911;51.526;11.536;2024-03-08T08:20:58;3.46;74.31
51878;SHT31;37911;51.526;11.536;2024-03-08T08:24:02;3.82;73.95
51878;SHT31;37911;51.526;11.536;2024-03-08T08:27:05;3.82;73.61
51878;SHT31;37911;51.526;11.536;2024-03-08T08:30:13;4.20;73.09
51878;SHT31;37911;51.526;11.536;2024-03-08T08:33:16;4.47;71.48
51878;SHT31;37911;51.526;11.536;2024-03-08T08:36:19;4.82;71.18
51878;SHT31;37911;51.526;11.536;2024-03-08T08:39:23;4.75;69.99
51878;SHT31;37911;51.526;11.536;2024-03-08T08:42:26;5.29;70.28
51878;SHT31;37911;51.526;11.536;2024-03-08T08:45:32;5.73;68.42
51878;SHT31;37911;51.526;11.536;2024-03-08T08:48:36;5.73;67.58
51878;SHT31;37911;51.526;11.536;2024-03-08T08:51:41;6.20;68.12
51878;SHT31;37911;51.526;11.536;2024-03-08T08:54:44;6.48;65.81
51878;SHT31;37911;51.526;11.536;2024-03-08T08:57:50;6.28;65.53
51878;SHT31;37911;51.526;11.536;2024-03-08T09:00:56;6.39;66.95
51878;SHT31;37911;51.526;11.536;2024-03-08T09:04:00;6.68;65.37
51878;SHT31;37911;51.526;11.536;2024-03-08T09:07:03;6.85;65.69
51878;SHT31;37911;51.526;11.536;2024-03-08T09:10:07;6.82;65.11
51878;SHT31;37911;51.526;11.536;2024-03-08T09:13:12;6.85;64.38
51878;SHT31;37911;51.526;11.536;2024-03-08T09:16:20;7.46;64.26
51878;SHT31;37911;51.526;11.536;2024-03-08T09:19:23;7.18;65.03
51878;SHT31;37911;51.526;11.536;2024-03-08T09:22:26;7.67;63.71
51878;SHT31;37911;51.526;11.536;2024-03-08T09:25:30;7.85;62.78
51878;SHT31;37911;51.526;11.536;2024-03-08T09:28:33;7.65;63.53
51878;SHT31;37911;51.526;11.536;2024-03-08T09:31:40;7.52;62.72
51878;SHT31;37911;51.526;11.536;2024-03-08T09:34:46;7.64;62.79
51878;SHT31;37911;51.526;11.536;2024-03-08T09:37:50;7.93;63.51
51878;SHT31;37911;51.526;11.536;2024-03-08T09:40:54;7.92;61.61
51878;SHT31;37911;51.526;11.536;2024-03-08T09:43:57;7.98;62.33
51878;SHT31;37911;51.526;11.536;2024-03-08T09:47:05;7.83;62.45
51878;SHT31;37911;51.526;11.536;2024-03-08T09:50:09;8.25;61.73
51878;SHT31;37911;51.526;11.536;2024-03-08T09:53:13;8.44;62.15
51878;SHT31;37911;51.526;11.536;2024-03-08T09:56:17;7.96;63.18
51878;SHT31;37911;51.526;11.536;2024-03-08T09:59:20;7.78;63.03
51878;SHT31;37911;51.526;11.536;2024-03-08T10:02:47;8.10;62.57
51878;SHT31;37911;51.526;11.536;2024-03-08T10:05:52;8.25;63.01
51878;SHT31;37911;51.526;11.536;2024-03-08T10:08:56;8.47;63.13
51878;SHT31;37911;51.526;11.536;2024-03-08T10:12:00;8.77;61.27
51878;SHT31;37911;51.526;11.536;2024-03-08T10:15:05;9.04;60.49
51878;SHT31;37911;51.526;11.536;2024-03-08T10:18:12;8.57;61.24
51878;SHT31;37911;51.526;11.536;2024-03-08T10:21:15;8.44;61.73
51878;SHT31;37911;51.526;11.536;2024-03-08T10:24:19;8.28;62.67
51878;SHT31;37911;51.526;11.536;2024-03-08T10:27:24;8.42;62.18
51878;SHT31;37911;51.526;11.536;2024-03-08T10:30:27;8.02;62.66
51878;SHT31;37911;51.526;11.536;2024-03-08T10:33:33;8.28;61.17
51878;SHT31;37911;51.526;11.536;2024-03-08T10:36:39;8.47;60.05
51878;SHT31;37911;51.526;11.536;2024-03-08T10:39:46;8.33;61.72
51878;SHT31;37911;51.526;11.536;2024-03-08T10:42:54;8.21;62.06
51878;SHT31;37911;51.526;11.536;2024-03-08T10:46:07;8.52;61.72
51878;SHT31;37911;51.526;11.536;2024-03-08T10:49:25;8.32;61.97
51878;SHT31;37911;51.526;11.536;2024-03-08T10:52:29;8.23;62.13
51878;SHT31;37911;51.526;11.536;2024-03-08T10:55:33;8.25;62.13
51878;SHT31;37911;51.526;11.536;2024-03-08T10:58:37;8.43;61.63
51878;SHT31;37911;51.526;11.536;2024-03-08T11:01:41;8.32;61.59
51878;SHT31;37911;51.526;11.536;2024-03-08T11:04:50;8.46;61.32
51878;SHT31;37911;51.526;11.536;2024-03-08T11:07:56;8.70;60.79
51878;SHT31;37911;51.526;11.536;2024-03-08T11:11:00;8.94;60.29
51878;SHT31;37911;51.526;11.536;2024-03-08T11:14:05;8.76;60.50
51878;SHT31;37911;51.526;11.536;2024-03-08T11:17:08;8.71;60.88
51878;SHT31;37911;51.526;11.536;2024-03-08T11:20:15;8.80;60.70
51878;SHT31;37911;51.526;11.536;2024-03-08T11:23:22;8.78;60.91
51878;SHT31;37911;51.526;11.536;2024-03-08T11:26:26;9.01;60.16
51878;SHT31;37911;51.526;11.536;2024-03-08T11:29:37;9.14;59.77
51878;SHT31;37911;51.526;11.536;2024-03-08T11:32:45;9.19;59.30
51878;SHT31;37911;51.526;11.536;2024-03-08T11:35:51;9.29;58.71
51878;SHT31;37911;51.526;11.536;2024-03-08T11:38:57;9.53;58.41
51878;SHT31;37911;51.526;11.536;2024-03-08T11:42:09;9.66;57.92
51878;SHT31;37911;51.526;11.536;2024-03-08T11:45:13;9.79;57.48
51878;SHT31;37911;51.526;11.536;2024-03-08T11:48:17;9.38;58.31
51878;SHT31;37911;51.526;11.536;2024-03-08T11:51:23;9.82;57.66
51878;SHT31;37911;51.526;11.536;2024-03-08T11:54:26;9.66;56.83
51878;SHT31;37911;51.526;11.536;2024-03-08T11:57:30;9.28;57.52
51878;SHT31;37911;51.526;11.536;2024-03-08T12:00:36;9.17;58.16
51878;SHT31;37911;51.526;11.536;2024-03-08T12:03:41;9.55;58.05
51878;SHT31;37911;51.526;11.536;2024-03-08T12:06:48;9.63;57.76
51878;SHT31;37911;51.526;11.536;2024-03-08T12:10:15;9.69;57.92
51878;SHT31;37911;51.526;11.536;2024-03-08T12:13:20;9.72;57.64
51878;SHT31;37911;51.526;11.536;2024-03-08T12:16:24;9.60;56.41
51878;SHT31;37911;51.526;11.536;2024-03-08T12:19:28;9.63;56.45
51878;SHT31;37911;51.526;11.536;2024-03-08T12:22:34;9.56;56.93
51878;SHT31;37911;51.526;11.536;2024-03-08T12:25:38;9.60;57.56
51878;SHT31;37911;51.526;11.536;2024-03-08T12:28:42;9.85;57.31
51878;SHT31;37911;51.526;11.536;2024-03-08T12:31:50;9.80;57.32
51878;SHT31;37911;51.526;11.536;2024-03-08T12:34:54;9.73;57.32
51878;SHT31;37911;51.526;11.536;2024-03-08T12:38:00;9.70;57.53
51878;SHT31;37911;51.526;11.536;2024-03-08T12:41:04;9.68;56.44
51878;SHT31;37911;51.526;11.536;2024-03-08T12:44:08;9.46;57.12
51878;SHT31;37911;51.526;11.536;2024-03-08T12:47:11;9.38;57.27
51878;SHT31;37911;51.526;11.536;2024-03-08T12:50:15;9.38;57.95
51878;SHT31;37911;51.526;11.536;2024-03-08T12:53:21;9.49;57.10
51878;SHT31;37911;51.526;11.536;2024-03-08T12:56:29;9.38;57.12
51878;SHT31;37911;51.526;11.536;2024-03-08T12:59:34;9.42;56.55
51878;SHT31;37911;51.526;11.536;2024-03-08T13:02:39;9.38;57.27
51878;SHT31;37911;51.526;11.536;2024-03-08T13:05:42;9.41;57.10
51878;SHT31;37911;51.526;11.536;2024-03-08T13:08:49;9.22;57.28
51878;SHT31;37911;51.526;11.536;2024-03-08T13:11:52;9.32;57.19
51878;SHT31;37911;51.526;11.536;2024-03-08T13:14:59;9.35;58.09
51878;SHT31;37911;51.526;11.536;2024-03-08T13:18:03;9.51;57.34
51878;SHT31;37911;51.526;11.536;2024-03-08T13:21:10;9.56;57.98
51878;SHT31;37911;51.526;11.536;2024-03-08T13:24:17;9.63;58.75
51878;SHT31;37911;51.526;11.536;2024-03-08T13:27:20;9.92;57.62
51878;SHT31;37911;51.526;11.536;2024-03-08T13:30:25;9.70;57.76
51878;SHT31;37911;51.526;11.536;2024-03-08T13:33:31;9.59;58.20
51878;SHT31;37911;51.526;11.536;2024-03-08T13:36:35;9.73;58.00
51878;SHT31;37911;51.526;11.536;2024-03-08T13:39:46;9.78;57.67
51878;SHT31;37911;51.526;11.536;2024-03-08T13:42:50;9.63;57.95
51878;SHT31;37911;51.526;11.536;2024-03-08T13:45:53;9.63;57.06
51878;SHT31;37911;51.526;11.536;2024-03-08T13:49:03;9.83;56.50
51878;SHT31;37911;51.526;11.536;2024-03-08T13:52:10;9.99;56.66
51878;SHT31;37911;51.526;11.536;2024-03-08T13:55:19;9.87;56.59
51878;SHT31;37911;51.526;11.536;2024-03-08T13:58:24;9.62;57.38
51878;SHT31;37911;51.526;11.536;2024-03-08T14:01:30;9.75;57.62
51878;SHT31;37911;51.526;11.536;2024-03-08T14:04:34;9.80;57.18
51878;SHT31;37911;51.526;11.536;2024-03-08T14:07:38;9.75;58.34
51878;SHT31;37911;51.526;11.536;2024-03-08T14:10:44;9.52;57.81
51878;SHT31;37911;51.526;11.536;2024-03-08T14:13:50;9.56;58.66
51878;SHT31;37911;51.526;11.536;2024-03-08T14:16:55;9.65;58.86
51878;SHT31;37911;51.526;11.536;2024-03-08T14:19:58;9.52;59.17
51878;SHT31;37911;51.526;11.536;2024-03-08T14:23:02;9.46;59.32
51878;SHT31;37911;51.526;11.536;2024-03-08T14:26:09;9.51;59.03
51878;SHT31;37911;51.526;11.536;2024-03-08T14:29:12;9.53;59.78
51878;SHT31;37911;51.526;11.536;2024-03-08T14:32:16;9.62;59.62
51878;SHT31;37911;51.526;11.536;2024-03-08T14:35:20;9.52;59.14
51878;SHT31;37911;51.526;11.536;2024-03-08T14:38:25;9.52;59.38
51878;SHT31;37911;51.526;11.536;2024-03-08T14:41:31;9.51;59.47
51878;SHT31;37911;51.526;11.536;2024-03-08T14:44:35;9.56;59.51
51878;SHT31;37911;51.526;11.536;2024-03-08T14:47:38;9.31;59.60
51878;SHT31;37911;51.526;11.536;2024-03-08T14:50:42;9.48;59.43
51878;SHT31;37911;51.526;11.536;2024-03-08T14:53:47;9.56;59.61
51878;SHT31;37911;51.526;11.536;2024-03-08T14:56:53;9.55;59.02
51878;SHT31;37911;51.526;11.536;2024-03-08T14:59:57;9.49;58.57
51878;SHT31;37911;51.526;11.536;2024-03-08T15:03:06;9.58;58.88
51878;SHT31;37911;51.526;11.536;2024-03-08T15:06:13;9.56;59.10
51878;SHT31;37911;51.526;11.536;2024-03-08T15:09:20;9.49;58.67
51878;SHT31;37911;51.526;11.536;2024-03-08T15:12:26;9.45;58.60
51878;SHT31;37911;51.526;11.536;2024-03-08T15:15:29;9.21;58.72
51878;SHT31;37911;51.526;11.536;2024-03-08T15:18:34;9.12;59.18
51878;SHT31;37911;51.526;11.536;2024-03-08T15:21:38;8.94;60.10
51878;SHT31;37911;51.526;11.536;2024-03-08T15:24:43;8.88;60.04
51878;SHT31;37911;51.526;11.536;2024-03-08T15:27:49;8.81;61.11
51878;SHT31;37911;51.526;11.536;2024-03-08T15:30:52;8.77;60.84
51878;SHT31;37911;51.526;11.536;2024-03-08T15:34:06;8.60;60.60
51878;SHT31;37911;51.526;11.536;2024-03-08T15:37:11;8.54;60.90
51878;SHT31;37911;51.526;11.536;2024-03-08T15:40:17;8.52;61.34
51878;SHT31;37911;51.526;11.536;2024-03-08T15:43:26;8.46;61.28
51878;SHT31;37911;51.526;11.536;2024-03-08T15:46:29;8.33;61.32
51878;SHT31;37911;51.526;11.536;2024-03-08T15:49:33;8.29;61.56
51878;SHT31;37911;51.526;11.536;2024-03-08T15:52:36;8.21;61.93
51878;SHT31;37911;51.526;11.536;2024-03-08T15:55:40;8.17;62.13
51878;SHT31;37911;51.526;11.536;2024-03-08T15:58:47;8.17;62.78
51878;SHT31;37911;51.526;11.536;2024-03-08T16:01:50;8.16;62.95
51878;SHT31;37911;51.526;11.536;2024-03-08T16:04:54;8.01;63.06
51878;SHT31;37911;51.526;11.536;2024-03-08T16:07:57;7.98;63.35
51878;SHT31;37911;51.526;11.536;2024-03-08T16:11:00;7.91;63.85
51878;SHT31;37911;51.526;11.536;2024-03-08T16:14:08;7.89;63.57
51878;SHT31;37911;51.526;11.536;2024-03-08T16:17:14;7.85;63.71
51878;SHT31;37911;51.526;11.536;2024-03-08T16:20:17;7.79;64.06
51878;SHT31;37911;51.526;11.536;2024-03-08T16:23:23;7.71;64.28
51878;SHT31;37911;51.526;11.536;2024-03-08T16:26:27;7.68;64.90
51878;SHT31;37911;51.526;11.536;2024-03-08T16:29:37;7.58;65.04
51878;SHT31;37911;51.526;11.536;2024-03-08T16:32:41;7.52;65.45
51878;SHT31;37911;51.526;11.536;2024-03-08T16:35:46;7.47;65.35
51878;SHT31;37911;51.526;11.536;2024-03-08T16:38:49;7.37;65.83
51878;SHT31;37911;51.526;11.536;2024-03-08T16:41:53;7.38;65.85
51878;SHT31;37911;51.526;11.536;2024-03-08T16:44:59;7.32;66.21
51878;SHT31;37911;51.526;11.536;2024-03-08T16:48:03;7.27;66.74
51878;SHT31;37911;51.526;11.536;2024-03-08T16:51:07;7.17;67.12
51878;SHT31;37911;51.526;11.536;2024-03-08T16:54:10;7.14;67.49
51878;SHT31;37911;51.526;11.536;2024-03-08T16:57:14;7.08;67.37
51878;SHT31;37911;51.526;11.536;2024-03-08T17:00:21;7.00;67.54
51878;SHT31;37911;51.526;11.536;2024-03-08T17:03:28;6.93;68.06
51878;SHT31;37911;51.526;11.536;2024-03-08T17:06:31;6.83;68.08
51878;SHT31;37911;51.526;11.536;2024-03-08T17:09:34;6.80;68.01
51878;SHT31;37911;51.526;11.536;2024-03-08T17:12:39;6.72;68.43
51878;SHT31;37911;51.526;11.536;2024-03-08T17:15:45;6.61;68.68
51878;SHT31;37911;51.526;11.536;2024-03-08T17:18:49;6.56;68.84
51878;SHT31;37911;51.526;11.536;2024-03-08T17:21:52;6.48;68.83
51878;SHT31;37911;51.526;11.536;2024-03-08T17:24:56;6.39;69.45
51878;SHT31;37911;51.526;11.536;2024-03-08T17:28:00;6.35;69.49
51878;SHT31;37911;51.526;11.536;2024-03-08T17:31:06;6.28;69.42
51878;SHT31;37911;51.526;11.536;2024-03-08T17:34:12;6.26;69.44
51878;SHT31;37911;51.526;11.536;2024-03-08T17:37:18;6.25;69.32
51878;SHT31;37911;51.526;11.536;2024-03-08T17:40:23;6.22;69.41
51878;SHT31;37911;51.526;11.536;2024-03-08T17:43:26;6.17;69.17
51878;SHT31;37911;51.526;11.536;2024-03-08T17:46:32;6.05;69.44
51878;SHT31;37911;51.526;11.536;2024-03-08T17:49:38;6.00;69.12
51878;SHT31;37911;51.526;11.536;2024-03-08T17:52:42;5.94;68.58
51878;SHT31;37911;51.526;11.536;2024-03-08T17:55:46;5.93;68.86
51878;SHT31;37911;51.526;11.536;2024-03-08T17:58:51;5.94;68.61
51878;SHT31;37911;51.526;11.536;2024-03-08T18:01:56;5.86;68.66
51878;SHT31;37911;51.526;11.536;2024-03-08T18:05:00;5.78;68.76
51878;SHT31;37911;51.526;11.536;2024-03-08T18:08:05;5.75;69.08
51878;SHT31;37911;51.526;11.536;2024-03-08T18:11:09;5.80;68.79
51878;SHT31;37911;51.526;11.536;2024-03-08T18:14:12;5.73;68.53
51878;SHT31;37911;51.526;11.536;2024-03-08T18:17:20;5.68;69.39
51878;SHT31;37911;51.526;11.536;2024-03-08T18:20:25;5.63;69.19
51878;SHT31;37911;51.526;11.536;2024-03-08T18:23:29;5.60;69.21
51878;SHT31;37911;51.526;11.536;2024-03-08T18:26:33;5.56;69.26
51878;SHT31;37911;51.526;11.536;2024-03-08T18:29:37;5.57;69.50
51878;SHT31;37911;51.526;11.536;2024-03-08T18:32:43;5.48;69.57
51878;SHT31;37911;51.526;11.536;2024-03-08T18:35:47;5.47;69.92
51878;SHT31;37911;51.526;11.536;2024-03-08T18:38:51;5.40;70.02
51878;SHT31;37911;51.526;11.536;2024-03-08T18:41:54;5.42;70.26
51878;SHT31;37911;51.526;11.536;2024-03-08T18:44:58;5.43;69.86
51878;SHT31;37911;51.526;11.536;2024-03-08T18:48:06;5.42;70.40
51878;SHT31;37911;51.526;11.536;2024-03-08T18:51:11;5.40;70.55
51878;SHT31;37911;51.526;11.536;2024-03-08T18:54:15;5.26;70.73
51878;SHT31;37911;51.526;11.536;2024-03-08T18:57:19;5.25;71.27
51878;SHT31;37911;51.526;11.536;2024-03-08T19:00:22;5.25;71.05
51878;SHT31;37911;51.526;11.536;2024-03-08T19:03:30;5.23;70.71
51878;SHT31;37911;51.526;11.536;2024-03-08T19:06:35;5.22;71.22
51878;SHT31;37911;51.526;11.536;2024-03-08T19:09:40;5.18;71.17
51878;SHT31;37911;51.526;11.536;2024-03-08T19:12:50;5.12;71.39
51878;SHT31;37911;51.526;11.536;2024-03-08T19:15:53;5.12;71.40
51878;SHT31;37911;51.526;11.536;2024-03-08T19:18:59;5.11;71.82
51878;SHT31;37911;51.526;11.536;2024-03-08T19:22:03;5.06;71.97